sensor_id;sensor_type;location;lat;lon;timestamp;pressure;altitude;pressure_sealevel;temperature;humidity
5455;BME280;2750;49.050;9.250;2024-02-21T00:02:20;99800.72;;;10.48;82.05
5455;BME280;2750;49.050;9.250;2024-02-21T00:07:23;99794.69;;;10.47;81.73
5455;BME280;2750;49.050;9.250;2024-02-21T00:12:24;99789.38;;;10.52;82.20
5455;BME280;2750;49.050;9.250;2024-02-21T00:17:26;99784.88;;;10.85;80.94
5455;BME280;2750;49.050;9.250;2024-02-21T00:22:29;99777.97;;;10.58;80.97
5455;BME280;2750;49.050;9.250;2024-02-21T00:27:31;99756.88;;;10.68;80.57
5455;BME280;2750;49.050;9.250;2024-02-21T00:32:33;99753.69;;;11.13;80.00
5455;BME280;2750;49.050;9.250;2024-02-21T00:37:36;99742.63;;;11.32;79.21
5455;BME280;2750;49.050;9.250;2024-02-21T00:42:37;99742.19;;;11.20;79.55
5455;BME280;2750;49.050;9.250;2024-02-21T00:47:39;99735.13;;;10.98;80.44
5455;BME280;2750;49.050;9.250;2024-02-21T00:52:42;99733.47;;;10.96;80.26
5455;BME280;2750;49.050;9.250;2024-02-21T00:57:44;99735.47;;;10.88;80.56
5455;BME280;2750;49.050;9.250;2024-02-21T01:02:46;99725.63;;;10.71;81.86
5455;BME280;2750;49.050;9.250;2024-02-21T01:07:49;99728.72;;;10.82;80.60
5455;BME280;2750;49.050;9.250;2024-02-21T01:12:50;99718.53;;;10.76;80.94
5455;BME280;2750;49.050;9.250;2024-02-21T01:17:52;99710.50;;;10.84;80.67
5455;BME280;2750;49.050;9.250;2024-02-21T01:22:56;99696.69;;;10.83;80.61
5455;BME280;2750;49.050;9.250;2024-02-21T01:27:57;99689.38;;;10.68;81.38
5455;BME280;2750;49.050;9.250;2024-02-21T01:32:59;99689.88;;;10.79;80.83
5455;BME280;2750;49.050;9.250;2024-02-21T01:38:02;99690.03;;;10.75;80.43
5455;BME280;2750;49.050;9.250;2024-02-21T01:43:15;99675.91;;;10.57;81.02
5455;BME280;2750;49.050;9.250;2024-02-21T01:48:17;99671.81;;;10.76;81.20
5455;BME280;2750;49.050;9.250;2024-02-21T01:53:22;99656.06;;;10.54;81.22
5455;BME280;2750;49.050;9.250;2024-02-21T01:58:26;99646.00;;;10.45;82.07
5455;BME280;2750;49.050;9.250;2024-02-21T02:03:28;99642.72;;;10.40;82.60
5455;BME280;2750;49.050;9.250;2024-02-21T02:08:32;99642.50;;;10.46;82.75
5455;BME280;2750;49.050;9.250;2024-02-21T02:13:34;99622.94;;;10.36;83.52
5455;BME280;2750;49.050;9.250;2024-02-21T02:18:35;99622.53;;;10.50;83.86
5455;BME280;2750;49.050;9.250;2024-02-21T02:23:38;99629.28;;;10.54;83.81
5455;BME280;2750;49.050;9.250;2024-02-21T02:28:40;99640.06;;;10.68;84.45
5455;BME280;2750;49.050;9.250;2024-02-21T02:33:42;99642.50;;;10.99;84.17
5455;BME280;2750;49.050;9.250;2024-02-21T02:38:45;99640.47;;;11.07;84.49
5455;BME280;2750;49.050;9.250;2024-02-21T02:43:46;99627.06;;;10.94;84.73
5455;BME280;2750;49.050;9.250;2024-02-21T02:48:48;99615.56;;;11.01;85.11
5455;BME280;2750;49.050;9.250;2024-02-21T02:53:51;99616.91;;;10.62;85.77
5455;BME280;2750;49.050;9.250;2024-02-21T02:58:52;99605.13;;;10.78;85.73
5455;BME280;2750;49.050;9.250;2024-02-21T03:03:54;99586.44;;;10.69;85.69
5455;BME280;2750;49.050;9.250;2024-02-21T03:08:57;99583.16;;;10.37;86.49
5455;BME280;2750;49.050;9.250;2024-02-21T03:14:00;99577.25;;;10.04;87.20
5455;BME280;2750;49.050;9.250;2024-02-21T03:19:01;99579.56;;;10.14;87.49
5455;BME280;2750;49.050;9.250;2024-02-21T03:24:05;99558.94;;;10.11;86.59
5455;BME280;2750;49.050;9.250;2024-02-21T03:29:07;99555.59;;;10.07;86.90
5455;BME280;2750;49.050;9.250;2024-02-21T03:34:10;99560.00;;;9.77;87.59
5455;BME280;2750;49.050;9.250;2024-02-21T03:39:13;99557.56;;;9.71;87.57
5455;BME280;2750;49.050;9.250;2024-02-21T03:44:14;99550.31;;;9.82;87.25
5455;BME280;2750;49.050;9.250;2024-02-21T03:49:16;99543.41;;;9.81;87.07
5455;BME280;2750;49.050;9.250;2024-02-21T03:54:19;99534.22;;;9.73;87.32
5455;BME280;2750;49.050;9.250;2024-02-21T03:59:22;99544.19;;;9.57;88.21
5455;BME280;2750;49.050;9.250;2024-02-21T04:04:23;99538.16;;;9.56;87.53
5455;BME280;2750;49.050;9.250;2024-02-21T04:09:30;99523.41;;;9.31;87.90
5455;BME280;2750;49.050;9.250;2024-02-21T04:14:31;99500.34;;;9.22;88.70
5455;BME280;2750;49.050;9.250;2024-02-21T04:19:33;99487.09;;;9.03;88.88
5455;BME280;2750;49.050;9.250;2024-02-21T04:24:36;99502.31;;;9.13;88.80
5455;BME280;2750;49.050;9.250;2024-02-21T04:29:37;99508.16;;;9.20;88.80
5455;BME280;2750;49.050;9.250;2024-02-21T04:34:40;99503.56;;;9.30;87.86
5455;BME280;2750;49.050;9.250;2024-02-21T04:39:43;99500.84;;;9.34;88.60
5455;BME280;2750;49.050;9.250;2024-02-21T04:44:45;99513.84;;;9.33;87.64
5455;BME280;2750;49.050;9.250;2024-02-21T04:49:47;99526.84;;;9.31;87.08
5455;BME280;2750;49.050;9.250;2024-02-21T04:54:49;99522.03;;;9.47;86.26
5455;BME280;2750;49.050;9.250;2024-02-21T04:59:52;99521.94;;;9.22;87.22
5455;BME280;2750;49.050;9.250;2024-02-21T05:04:53;99511.34;;;9.00;87.59
5455;BME280;2750;49.050;9.250;2024-02-21T05:09:56;99483.75;;;8.99;86.95
5455;BME280;2750;49.050;9.250;2024-02-21T05:14:58;99486.50;;;8.93;88.18
5455;BME280;2750;49.050;9.250;2024-02-21T05:19:59;99472.25;;;8.80;88.05
5455;BME280;2750;49.050;9.250;2024-02-21T05:25:02;99455.78;;;8.52;88.67
5455;BME280;2750;49.050;9.250;2024-02-21T05:30:05;99456.25;;;8.66;88.27
5455;BME280;2750;49.050;9.250;2024-02-21T05:35:07;99450.72;;;8.47;89.49
5455;BME280;2750;49.050;9.250;2024-02-21T05:40:11;99448.66;;;8.60;88.23
5455;BME280;2750;49.050;9.250;2024-02-21T05:45:13;99439.94;;;8.62;87.98
5455;BME280;2750;49.050;9.250;2024-02-21T05:50:15;99440.16;;;8.55;88.08
5455;BME280;2750;49.050;9.250;2024-02-21T05:55:19;99431.41;;;8.30;90.18
5455;BME280;2750;49.050;9.250;2024-02-21T06:00:20;99433.22;;;8.25;89.86
5455;BME280;2750;49.050;9.250;2024-02-21T06:05:22;99440.97;;;8.25;89.32
5455;BME280;2750;49.050;9.250;2024-02-21T06:10:25;99443.44;;;8.31;88.59
5455;BME280;2750;49.050;9.250;2024-02-21T06:15:26;99439.22;;;8.27;89.37
5455;BME280;2750;49.050;9.250;2024-02-21T06:20:28;99428.44;;;8.11;89.72
5455;BME280;2750;49.050;9.250;2024-02-21T06:25:31;99428.88;;;8.27;88.02
5455;BME280;2750;49.050;9.250;2024-02-21T06:30:32;99439.22;;;8.27;88.41
5455;BME280;2750;49.050;9.250;2024-02-21T06:35:34;99440.59;;;8.40;88.71
5455;BME280;2750;49.050;9.250;2024-02-21T06:40:37;99433.34;;;8.52;87.32
5455;BME280;2750;49.050;9.250;2024-02-21T06:45:40;99417.47;;;8.66;86.97
5455;BME280;2750;49.050;9.250;2024-02-21T06:50:42;99412.34;;;8.63;87.25
5455;BME280;2750;49.050;9.250;2024-02-21T06:55:45;99414.88;;;8.95;85.24
5455;BME280;2750;49.050;9.250;2024-02-21T07:00:47;99406.88;;;9.31;84.67
5455;BME280;2750;49.050;9.250;2024-02-21T07:05:48;99406.19;;;9.52;83.52
5455;BME280;2750;49.050;9.250;2024-02-21T07:10:51;99402.09;;;9.71;82.47
5455;BME280;2750;49.050;9.250;2024-02-21T07:15:53;99394.88;;;9.81;82.64
5455;BME280;2750;49.050;9.250;2024-02-21T07:20:54;99387.09;;;9.81;83.05
5455;BME280;2750;49.050;9.250;2024-02-21T07:25:57;99407.00;;;10.05;82.92
5455;BME280;2750;49.050;9.250;2024-02-21T07:30:59;99383.91;;;10.47;81.82
5455;BME280;2750;49.050;9.250;2024-02-21T07:36:01;99395.75;;;10.54;80.87
5455;BME280;2750;49.050;9.250;2024-02-21T07:41:07;99390.25;;;11.08;80.55
5455;BME280;2750;49.050;9.250;2024-02-21T07:46:09;99375.44;;;11.32;79.03
5455;BME280;2750;49.050;9.250;2024-02-21T07:51:11;99366.41;;;11.20;78.90
5455;BME280;2750;49.050;9.250;2024-02-21T07:56:14;99346.25;;;11.47;78.96
5455;BME280;2750;49.050;9.250;2024-02-21T08:01:18;99351.75;;;11.61;78.29
5455;BME280;2750;49.050;9.250;2024-02-21T08:06:21;99356.09;;;11.61;78.24
5455;BME280;2750;49.050;9.250;2024-02-21T08:11:23;99361.44;;;11.36;78.91
5455;BME280;2750;49.050;9.250;2024-02-21T08:16:26;99355.31;;;12.19;77.06
5455;BME280;2750;49.050;9.250;2024-02-21T08:21:28;99354.53;;;12.37;75.45
5455;BME280;2750;49.050;9.250;2024-02-21T08:26:30;99354.94;;;12.84;75.15
5455;BME280;2750;49.050;9.250;2024-02-21T08:31:32;99344.63;;;12.07;74.86
5455;BME280;2750;49.050;9.250;2024-02-21T08:36:34;99343.66;;;12.28;76.67
5455;BME280;2750;49.050;9.250;2024-02-21T08:41:37;99338.84;;;12.76;74.48
5455;BME280;2750;49.050;9.250;2024-02-21T08:46:39;99331.03;;;12.95;73.06
5455;BME280;2750;49.050;9.250;2024-02-21T08:51:40;99318.38;;;14.09;72.17
5455;BME280;2750;49.050;9.250;2024-02-21T08:56:44;99310.72;;;14.39;70.87
5455;BME280;2750;49.050;9.250;2024-02-21T09:01:46;99309.47;;;14.13;70.76
5455;BME280;2750;49.050;9.250;2024-02-21T09:06:48;99305.34;;;13.92;69.41
5455;BME280;2750;49.050;9.250;2024-02-21T09:11:50;99296.56;;;14.43;71.48
5455;BME280;2750;49.050;9.250;2024-02-21T09:16:52;99285.28;;;15.05;68.66
5455;BME280;2750;49.050;9.250;2024-02-21T09:21:54;99290.34;;;14.93;68.15
5455;BME280;2750;49.050;9.250;2024-02-21T09:26:56;99284.63;;;14.86;69.08
5455;BME280;2750;49.050;9.250;2024-02-21T09:31:58;99275.09;;;14.69;69.58
5455;BME280;2750;49.050;9.250;2024-02-21T09:37:00;99277.72;;;14.21;70.42
5455;BME280;2750;49.050;9.250;2024-02-21T09:42:06;99270.75;;;15.00;68.97
5455;BME280;2750;49.050;9.250;2024-02-21T09:47:10;99260.13;;;15.48;67.81
5455;BME280;2750;49.050;9.250;2024-02-21T09:52:15;99261.03;;;15.47;67.47
5455;BME280;2750;49.050;9.250;2024-02-21T09:57:18;99258.28;;;15.35;68.06
5455;BME280;2750;49.050;9.250;2024-02-21T10:02:19;99254.09;;;16.18;65.72
5455;BME280;2750;49.050;9.250;2024-02-21T10:07:21;99237.66;;;16.71;65.92
5455;BME280;2750;49.050;9.250;2024-02-21T10:12:27;99223.53;;;16.74;64.21
5455;BME280;2750;49.050;9.250;2024-02-21T10:17:29;99230.41;;;17.02;63.27
5455;BME280;2750;49.050;9.250;2024-02-21T10:22:30;99216.03;;;17.34;62.82
5455;BME280;2750;49.050;9.250;2024-02-21T10:27:37;99203.81;;;18.34;59.93
5455;BME280;2750;49.050;9.250;2024-02-21T10:32:49;99202.28;;;18.79;58.28
5455;BME280;2750;49.050;9.250;2024-02-21T10:37:50;99201.81;;;18.74;59.07
5455;BME280;2750;49.050;9.250;2024-02-21T10:42:58;99189.16;;;19.14;57.91
5455;BME280;2750;49.050;9.250;2024-02-21T10:48:08;99183.31;;;19.56;57.13
5455;BME280;2750;49.050;9.250;2024-02-21T10:53:19;99172.28;;;19.63;56.64
5455;BME280;2750;49.050;9.250;2024-02-21T10:58:26;99163.41;;;19.41;56.31
5455;BME280;2750;49.050;9.250;2024-02-21T11:03:30;99148.88;;;19.25;56.42
5455;BME280;2750;49.050;9.250;2024-02-21T11:08:32;99141.97;;;18.41;59.84
5455;BME280;2750;49.050;9.250;2024-02-21T11:13:36;99140.47;;;18.50;59.19
5455;BME280;2750;49.050;9.250;2024-02-21T11:18:38;99120.47;;;18.95;58.03
5455;BME280;2750;49.050;9.250;2024-02-21T11:23:40;99113.53;;;18.59;58.98
5455;BME280;2750;49.050;9.250;2024-02-21T11:28:42;99105.22;;;18.76;57.85
5455;BME280;2750;49.050;9.250;2024-02-21T11:33:47;99085.88;;;18.77;58.22
5455;BME280;2750;49.050;9.250;2024-02-21T11:38:49;99080.41;;;18.56;57.11
5455;BME280;2750;49.050;9.250;2024-02-21T11:43:52;99074.34;;;18.67;57.74
5455;BME280;2750;49.050;9.250;2024-02-21T11:48:54;99066.28;;;18.81;57.23
5455;BME280;2750;49.050;9.250;2024-02-21T11:53:56;99041.38;;;19.42;55.94
5455;BME280;2750;49.050;9.250;2024-02-21T11:59:00;99043.47;;;19.93;54.90
5455;BME280;2750;49.050;9.250;2024-02-21T12:04:02;99035.22;;;18.97;57.16
5455;BME280;2750;49.050;9.250;2024-02-21T12:09:03;99018.63;;;18.97;54.42
5455;BME280;2750;49.050;9.250;2024-02-21T12:14:06;99018.81;;;18.13;57.10
5455;BME280;2750;49.050;9.250;2024-02-21T12:19:09;99006.09;;;18.20;56.69
5455;BME280;2750;49.050;9.250;2024-02-21T12:24:13;98989.97;;;18.24;56.98
5455;BME280;2750;49.050;9.250;2024-02-21T12:29:17;98979.63;;;19.02;54.60
5455;BME280;2750;49.050;9.250;2024-02-21T12:34:18;98972.03;;;18.18;57.33
5455;BME280;2750;49.050;9.250;2024-02-21T12:39:20;98968.09;;;18.12;55.81
5455;BME280;2750;49.050;9.250;2024-02-21T12:44:23;98951.72;;;18.09;55.59
5455;BME280;2750;49.050;9.250;2024-02-21T12:49:24;98935.81;;;18.10;57.09
5455;BME280;2750;49.050;9.250;2024-02-21T12:54:27;98917.44;;;19.23;55.39
5455;BME280;2750;49.050;9.250;2024-02-21T12:59:31;98917.66;;;19.42;54.97
5455;BME280;2750;49.050;9.250;2024-02-21T13:04:33;98915.06;;;19.20;55.74
5455;BME280;2750;49.050;9.250;2024-02-21T13:09:35;98897.97;;;18.81;56.52
5455;BME280;2750;49.050;9.250;2024-02-21T13:14:38;98884.44;;;18.86;55.43
5455;BME280;2750;49.050;9.250;2024-02-21T13:19:39;98872.38;;;18.83;57.24
5455;BME280;2750;49.050;9.250;2024-02-21T13:24:41;98861.41;;;19.43;55.89
5455;BME280;2750;49.050;9.250;2024-02-21T13:29:44;98845.53;;;19.66;55.07
5455;BME280;2750;49.050;9.250;2024-02-21T13:34:45;98829.75;;;19.66;55.06
5455;BME280;2750;49.050;9.250;2024-02-21T13:39:47;98812.47;;;19.41;54.87
5455;BME280;2750;49.050;9.250;2024-02-21T13:44:50;98811.75;;;19.50;55.52
5455;BME280;2750;49.050;9.250;2024-02-21T13:49:51;98808.88;;;19.74;55.20
5455;BME280;2750;49.050;9.250;2024-02-21T13:54:53;98791.53;;;19.39;54.86
5455;BME280;2750;49.050;9.250;2024-02-21T13:59:56;98793.16;;;19.51;55.33
5455;BME280;2750;49.050;9.250;2024-02-21T14:04:57;98780.44;;;19.25;55.13
5455;BME280;2750;49.050;9.250;2024-02-21T14:09:59;98769.34;;;19.21;56.05
5455;BME280;2750;49.050;9.250;2024-02-21T14:15:02;98767.91;;;18.96;55.58
5455;BME280;2750;49.050;9.250;2024-02-21T14:20:06;98772.53;;;19.04;56.10
5455;BME280;2750;49.050;9.250;2024-02-21T14:25:08;98771.28;;;19.19;55.50
5455;BME280;2750;49.050;9.250;2024-02-21T14:30:11;98759.41;;;18.93;55.13
5455;BME280;2750;49.050;9.250;2024-02-21T14:35:13;98754.22;;;19.02;55.45
5455;BME280;2750;49.050;9.250;2024-02-21T14:40:15;98714.56;;;18.51;56.32
5455;BME280;2750;49.050;9.250;2024-02-21T14:45:19;98717.31;;;18.61;56.29
5455;BME280;2750;49.050;9.250;2024-02-21T14:50:23;98707.19;;;18.12;56.29
5455;BME280;2750;49.050;9.250;2024-02-21T14:55:27;98690.84;;;18.20;57.27
5455;BME280;2750;49.050;9.250;2024-02-21T15:00:30;98685.22;;;18.35;57.35
5455;BME280;2750;49.050;9.250;2024-02-21T15:05:32;98679.00;;;18.25;56.92
5455;BME280;2750;49.050;9.250;2024-02-21T15:10:35;98673.00;;;18.34;57.45
5455;BME280;2750;49.050;9.250;2024-02-21T15:15:37;98667.53;;;18.26;57.27
5455;BME280;2750;49.050;9.250;2024-02-21T15:20:39;98653.22;;;18.19;57.62
5455;BME280;2750;49.050;9.250;2024-02-21T15:25:40;98643.06;;;18.14;58.39
5455;BME280;2750;49.050;9.250;2024-02-21T15:30:45;98636.53;;;18.09;57.86
5455;BME280;2750;49.050;9.250;2024-02-21T15:35:46;98612.91;;;18.09;58.21
5455;BME280;2750;49.050;9.250;2024-02-21T15:40:48;98583.56;;;17.59;60.26
5455;BME280;2750;49.050;9.250;2024-02-21T15:45:51;98579.97;;;17.05;61.36
5455;BME280;2750;49.050;9.250;2024-02-21T15:50:53;98584.34;;;16.93;61.40
5455;BME280;2750;49.050;9.250;2024-02-21T15:55:54;98584.09;;;16.85;61.43
5455;BME280;2750;49.050;9.250;2024-02-21T16:00:57;98580.59;;;16.73;61.68
5455;BME280;2750;49.050;9.250;2024-02-21T16:05:59;98573.06;;;16.69;61.68
5455;BME280;2750;49.050;9.250;2024-02-21T16:11:01;98560.25;;;16.53;61.72
5455;BME280;2750;49.050;9.250;2024-02-21T16:16:04;98556.66;;;16.43;62.71
5455;BME280;2750;49.050;9.250;2024-02-21T16:21:06;98546.41;;;16.40;62.06
5455;BME280;2750;49.050;9.250;2024-02-21T16:26:08;98530.31;;;16.10;62.21
5455;BME280;2750;49.050;9.250;2024-02-21T16:31:12;98521.41;;;15.89;62.30
5455;BME280;2750;49.050;9.250;2024-02-21T16:36:20;98490.88;;;15.53;62.60
5455;BME280;2750;49.050;9.250;2024-02-21T16:41:22;98483.00;;;15.16;62.82
5455;BME280;2750;49.050;9.250;2024-02-21T16:46:25;98469.84;;;14.80;63.16
5455;BME280;2750;49.050;9.250;2024-02-21T16:51:26;98458.78;;;14.89;62.94
5455;BME280;2750;49.050;9.250;2024-02-21T16:56:28;98450.19;;;15.00;61.60
5455;BME280;2750;49.050;9.250;2024-02-21T17:01:35;98444.97;;;15.00;61.65
5455;BME280;2750;49.050;9.250;2024-02-21T17:06:39;98489.91;;;14.79;62.68
5455;BME280;2750;49.050;9.250;2024-02-21T17:11:40;98474.03;;;14.82;63.34
5455;BME280;2750;49.050;9.250;2024-02-21T17:16:43;98478.69;;;15.15;63.62
5455;BME280;2750;49.050;9.250;2024-02-21T17:21:45;98473.16;;;15.20;61.58
5455;BME280;2750;49.050;9.250;2024-02-21T17:26:46;98450.16;;;15.25;60.06
5455;BME280;2750;49.050;9.250;2024-02-21T17:31:49;98452.56;;;15.15;60.37
5455;BME280;2750;49.050;9.250;2024-02-21T17:36:51;98463.47;;;14.97;59.85
5455;BME280;2750;49.050;9.250;2024-02-21T17:41:53;98457.25;;;15.10;61.69
5455;BME280;2750;49.050;9.250;2024-02-21T17:46:58;98440.78;;;15.10;60.29
5455;BME280;2750;49.050;9.250;2024-02-21T17:51:59;98445.78;;;15.13;61.49
5455;BME280;2750;49.050;9.250;2024-02-21T17:57:01;98437.13;;;15.00;60.87
5455;BME280;2750;49.050;9.250;2024-02-21T18:02:04;98436.31;;;14.87;62.03
5455;BME280;2750;49.050;9.250;2024-02-21T18:07:05;98435.75;;;15.07;62.57
5455;BME280;2750;49.050;9.250;2024-02-21T18:12:07;98418.50;;;15.04;62.49
5455;BME280;2750;49.050;9.250;2024-02-21T18:17:10;98398.25;;;14.95;62.72
5455;BME280;2750;49.050;9.250;2024-02-21T18:22:14;98414.59;;;14.73;63.45
5455;BME280;2750;49.050;9.250;2024-02-21T18:27:16;98402.84;;;14.92;62.98
5455;BME280;2750;49.050;9.250;2024-02-21T18:32:19;98407.44;;;15.01;63.64
5455;BME280;2750;49.050;9.250;2024-02-21T18:37:20;98373.63;;;15.10;63.79
5455;BME280;2750;49.050;9.250;2024-02-21T18:42:22;98365.56;;;14.90;64.23
5455;BME280;2750;49.050;9.250;2024-02-21T18:47:25;98385.38;;;15.05;63.56
5455;BME280;2750;49.050;9.250;2024-02-21T18:52:27;98363.47;;;14.95;64.57
5455;BME280;2750;49.050;9.250;2024-02-21T18:57:29;98356.63;;;15.05;64.08
5455;BME280;2750;49.050;9.250;2024-02-21T19:02:33;98353.69;;;14.73;65.64
5455;BME280;2750;49.050;9.250;2024-02-21T19:07:35;98332.63;;;14.51;65.69
5455;BME280;2750;49.050;9.250;2024-02-21T19:12:37;98349.75;;;14.29;66.91
5455;BME280;2750;49.050;9.250;2024-02-21T19:17:40;98333.44;;;14.26;66.95
5455;BME280;2750;49.050;9.250;2024-02-21T19:22:42;98330.13;;;14.24;67.48
5455;BME280;2750;49.050;9.250;2024-02-21T19:27:46;98320.41;;;14.51;66.94
5455;BME280;2750;49.050;9.250;2024-02-21T19:32:49;98309.88;;;14.40;66.50
5455;BME280;2750;49.050;9.250;2024-02-21T19:37:50;98307.22;;;14.65;66.23
5455;BME280;2750;49.050;9.250;2024-02-21T19:42:52;98305.47;;;14.53;66.12
5455;BME280;2750;49.050;9.250;2024-02-21T19:47:55;98299.59;;;14.62;64.65
5455;BME280;2750;49.050;9.250;2024-02-21T19:52:58;98284.53;;;14.66;66.29
5455;BME280;2750;49.050;9.250;2024-02-21T19:58:02;98298.00;;;14.36;66.63
5455;BME280;2750;49.050;9.250;2024-02-21T20:03:06;98277.63;;;14.77;65.03
5455;BME280;2750;49.050;9.250;2024-02-21T20:08:08;98289.22;;;14.73;65.61
5455;BME280;2750;49.050;9.250;2024-02-21T20:13:09;98283.09;;;14.62;64.34
5455;BME280;2750;49.050;9.250;2024-02-21T20:18:14;98269.56;;;14.44;65.45
5455;BME280;2750;49.050;9.250;2024-02-21T20:23:15;98263.84;;;14.39;64.82
5455;BME280;2750;49.050;9.250;2024-02-21T20:28:20;98271.88;;;14.23;64.86
5455;BME280;2750;49.050;9.250;2024-02-21T20:33:23;98267.59;;;14.35;64.36
5455;BME280;2750;49.050;9.250;2024-02-21T20:38:25;98257.72;;;14.02;65.27
5455;BME280;2750;49.050;9.250;2024-02-21T20:43:26;98269.25;;;14.11;65.38
5455;BME280;2750;49.050;9.250;2024-02-21T20:48:29;98267.72;;;14.08;65.51
5455;BME280;2750;49.050;9.250;2024-02-21T20:53:31;98261.28;;;13.76;66.12
5455;BME280;2750;49.050;9.250;2024-02-21T20:58:33;98262.09;;;13.89;65.50
5455;BME280;2750;49.050;9.250;2024-02-21T21:03:36;98254.66;;;14.08;65.19
5455;BME280;2750;49.050;9.250;2024-02-21T21:08:39;98241.59;;;14.21;65.45
5455;BME280;2750;49.050;9.250;2024-02-21T21:13:40;98244.94;;;14.35;63.88
5455;BME280;2750;49.050;9.250;2024-02-21T21:18:43;98246.16;;;14.30;64.29
5455;BME280;2750;49.050;9.250;2024-02-21T21:23:44;98233.47;;;14.13;64.24
5455;BME280;2750;49.050;9.250;2024-02-21T21:28:46;98221.91;;;14.77;63.33
5455;BME280;2750;49.050;9.250;2024-02-21T21:33:49;98195.25;;;14.37;63.09
5455;BME280;2750;49.050;9.250;2024-02-21T21:38:51;98172.94;;;14.08;63.81
5455;BME280;2750;49.050;9.250;2024-02-21T21:43:53;98159.97;;;14.19;64.05
5455;BME280;2750;49.050;9.250;2024-02-21T21:48:56;98139.00;;;14.20;63.44
5455;BME280;2750;49.050;9.250;2024-02-21T21:53:58;98119.91;;;14.20;64.33
5455;BME280;2750;49.050;9.250;2024-02-21T21:58:59;98120.88;;;14.30;64.02
5455;BME280;2750;49.050;9.250;2024-02-21T22:04:04;98109.78;;;14.52;62.78
5455;BME280;2750;49.050;9.250;2024-02-21T22:09:06;98093.66;;;15.15;61.30
5455;BME280;2750;49.050;9.250;2024-02-21T22:14:09;98076.59;;;14.76;61.43
5455;BME280;2750;49.050;9.250;2024-02-21T22:19:12;98069.78;;;15.19;61.25
5455;BME280;2750;49.050;9.250;2024-02-21T22:24:14;98066.31;;;14.86;61.93
5455;BME280;2750;49.050;9.250;2024-02-21T22:29:15;98058.97;;;15.13;61.33
5455;BME280;2750;49.050;9.250;2024-02-21T22:34:18;98057.06;;;15.15;60.88
5455;BME280;2750;49.050;9.250;2024-02-21T22:39:20;98049.13;;;15.16;59.85
5455;BME280;2750;49.050;9.250;2024-02-21T22:44:22;98038.06;;;15.35;60.51
5455;BME280;2750;49.050;9.250;2024-02-21T22:49:25;98010.28;;;15.12;59.71
5455;BME280;2750;49.050;9.250;2024-02-21T22:54:26;97993.41;;;15.27;60.52
5455;BME280;2750;49.050;9.250;2024-02-21T22:59:28;97987.22;;;15.50;59.37
5455;BME280;2750;49.050;9.250;2024-02-21T23:04:32;97985.78;;;15.35;60.29
5455;BME280;2750;49.050;9.250;2024-02-21T23:09:33;97985.91;;;15.33;60.54
5455;BME280;2750;49.050;9.250;2024-02-21T23:14:35;97974.00;;;15.63;59.55
5455;BME280;2750;49.050;9.250;2024-02-21T23:19:38;97980.72;;;15.76;60.86
5455;BME280;2750;49.050;9.250;2024-02-21T23:24:40;97972.94;;;15.43;61.58
5455;BME280;2750;49.050;9.250;2024-02-21T23:29:41;97978.78;;;15.36;60.92
5455;BME280;2750;49.050;9.250;2024-02-21T23:34:44;97956.94;;;14.70;62.39
5455;BME280;2750;49.050;9.250;2024-02-21T23:39:46;97953.97;;;14.74;64.06
5455;BME280;2750;49.050;9.250;2024-02-21T23:44:48;97958.13;;;14.77;65.10
5455;BME280;2750;49.050;9.250;2024-02-21T23:49:51;97946.63;;;13.87;70.15
5455;BME280;2750;49.050;9.250;2024-02-21T23:54:52;97944.66;;;12.82;75.82
5455;BME280;2750;49.050;9.250;2024-02-21T23:59:54;97934.69;;;12.63;78.55
